createdAt,value
2022-12-05T00:01:32.780Z,-0.84
2022-12-05T00:04:02.204Z,-0.70
2022-12-05T00:06:31.206Z,-1.02
2022-12-05T00:08:59.516Z,-0.64
2022-12-05T00:11:29.185Z,-0.88
2022-12-05T00:13:59.217Z,-1.05
2022-12-05T00:16:28.372Z,-0.76
2022-12-05T00:18:56.058Z,-1.08
2022-12-05T00:21:26.090Z,-0.89
2022-12-05T00:23:55.053Z,-1.04
2022-12-05T00:26:23.326Z,-0.94
2022-12-05T00:28:51.060Z,-1.10
2022-12-05T00:31:22.298Z,-1.16
2022-12-05T00:33:50.812Z,-1.03
2022-12-05T00:36:19.700Z,-1.06
2022-12-05T00:38:47.187Z,-0.93
2022-12-05T00:41:20.906Z,-0.88
2022-12-05T00:43:48.203Z,-1.08
2022-12-05T00:46:19.353Z,-0.97
2022-12-05T00:48:47.434Z,-0.92
2022-12-05T00:51:20.930Z,-1.06
2022-12-05T00:53:48.742Z,-1.17
2022-12-05T00:56:20.961Z,-1.06
2022-12-05T00:58:48.574Z,-1.00
2022-12-05T01:01:19.775Z,-1.15
2022-12-05T01:03:47.554Z,-0.90
2022-12-05T01:06:16.645Z,-0.97
2022-12-05T01:08:44.373Z,-0.95
2022-12-05T01:11:14.782Z,-1.15
2022-12-05T01:13:42.373Z,-0.97
2022-12-05T01:16:23.737Z,-1.01
2022-12-05T01:18:51.316Z,-0.97
2022-12-05T01:21:20.241Z,-1.02
2022-12-05T01:23:47.763Z,-1.03
2022-12-05T01:26:17.456Z,-0.92
2022-12-05T01:28:45.329Z,-0.77
2022-12-05T01:31:25.463Z,-0.84
2022-12-05T01:33:54.738Z,-1.11
2022-12-05T01:36:23.398Z,-1.15
2022-12-05T01:38:51.394Z,-1.15
2022-12-05T01:41:21.875Z,-1.16
2022-12-05T01:44:03.963Z,-1.27
2022-12-05T01:46:34.398Z,-1.18
2022-12-05T01:49:24.722Z,-1.05
2022-12-05T01:51:56.468Z,-1.08
2022-12-05T01:54:24.786Z,-1.03
2022-12-05T01:57:04.064Z,-1.11
2022-12-05T01:59:36.006Z,-1.06
2022-12-05T02:02:04.928Z,-1.15
2022-12-05T02:04:38.629Z,-1.20
2022-12-05T02:07:06.136Z,-1.03
2022-12-05T02:09:33.347Z,-1.12
2022-12-05T02:12:03.292Z,-1.17
2022-12-05T02:14:33.034Z,-1.04
2022-12-05T02:17:11.041Z,-1.09
2022-12-05T02:19:56.704Z,-1.13
2022-12-05T02:22:48.465Z,-1.04
2022-12-05T02:25:43.557Z,-1.22
2022-12-05T02:28:28.180Z,-1.15
2022-12-05T02:31:16.267Z,-1.22
2022-12-05T02:33:51.053Z,-1.06
2022-12-05T02:36:45.414Z,-1.01
2022-12-05T02:39:19.094Z,-1.31
2022-12-05T02:41:55.216Z,-1.33
2022-12-05T02:44:32.275Z,-1.23
2022-12-05T02:47:00.876Z,-1.30
2022-12-05T02:49:32.091Z,-1.36
2022-12-05T02:52:02.603Z,-1.35
2022-12-05T02:54:35.876Z,-1.35
2022-12-05T02:57:04.554Z,-1.16
2022-12-05T02:59:32.032Z,-1.21
2022-12-05T03:01:59.257Z,-1.43
2022-12-05T03:04:29.034Z,-1.40
2022-12-05T03:07:12.339Z,-1.36
2022-12-05T03:09:46.870Z,-1.31
2022-12-05T03:12:31.085Z,-1.12
2022-12-05T03:15:24.656Z,-1.30
2022-12-05T03:18:06.657Z,-1.39
2022-12-05T03:20:42.772Z,-1.33
2022-12-05T03:23:46.267Z,-1.18
2022-12-05T03:26:21.452Z,-1.10
2022-12-05T03:29:08.772Z,-1.16
2022-12-05T03:32:01.335Z,-1.29
2022-12-05T03:34:31.299Z,-1.16
2022-12-05T03:37:05.948Z,-1.15
2022-12-05T03:39:36.310Z,-1.26
2022-12-05T03:42:13.791Z,-1.12
2022-12-05T03:44:57.612Z,-1.18
2022-12-05T03:47:48.950Z,-1.26
2022-12-05T03:50:24.413Z,-1.34
2022-12-05T03:55:54.780Z,-1.48
2022-12-05T03:58:28.741Z,-1.21
2022-12-05T04:00:59.990Z,-1.46
2022-12-05T04:03:39.744Z,-1.48
2022-12-05T04:06:21.547Z,-1.44
2022-12-05T04:08:55.145Z,-1.47
2022-12-05T04:11:27.318Z,-1.39
2022-12-05T04:13:59.540Z,-1.26
2022-12-05T04:16:48.476Z,-1.50
2022-12-05T04:19:29.266Z,-1.33
2022-12-05T04:21:57.605Z,-1.33
2022-12-05T04:24:51.143Z,-1.38
2022-12-05T04:27:59.678Z,-1.28
2022-12-05T04:30:40.571Z,-1.09
2022-12-05T04:33:17.265Z,-1.39
2022-12-05T04:35:56.125Z,-1.55
2022-12-05T04:38:39.828Z,-1.36
2022-12-05T04:41:14.056Z,-1.42
2022-12-05T04:43:44.627Z,-1.43
2022-12-05T04:46:15.057Z,-1.38
2022-12-05T04:48:45.537Z,-1.39
2022-12-05T04:51:19.582Z,-1.30
2022-12-05T04:53:50.139Z,-1.32
2022-12-05T04:56:19.622Z,-1.30
2022-12-05T04:58:46.938Z,-1.52
2022-12-05T05:01:36.345Z,-1.39
2022-12-05T05:04:27.114Z,-1.32
2022-12-05T05:06:54.722Z,-1.31
2022-12-05T05:09:21.881Z,-1.15
2022-12-05T05:11:49.404Z,-1.15
2022-12-05T05:14:16.528Z,-1.12
2022-12-05T05:16:44.915Z,-1.27
2022-12-05T05:19:12.346Z,-1.39
2022-12-05T05:21:42.252Z,-1.18
2022-12-05T05:24:11.726Z,-1.44
2022-12-05T05:26:41.529Z,-1.41
2022-12-05T05:29:09.840Z,-1.29
2022-12-05T05:31:38.850Z,-1.26
2022-12-05T05:34:09.663Z,-1.24
2022-12-05T05:36:38.494Z,-1.41
2022-12-05T05:39:09.230Z,-1.44
2022-12-05T05:41:36.909Z,-1.27
2022-12-05T05:44:05.265Z,-1.32
2022-12-05T05:46:34.952Z,-1.44
2022-12-05T05:49:02.230Z,-1.38
2022-12-05T05:51:30.435Z,-1.31
2022-12-05T05:53:58.629Z,-1.20
2022-12-05T05:56:27.282Z,-1.48
2022-12-05T05:59:02.860Z,-1.53
2022-12-05T06:01:30.617Z,-1.39
2022-12-05T06:03:58.324Z,-1.32
2022-12-05T06:06:26.544Z,-1.31
2022-12-05T06:08:54.961Z,-1.27
2022-12-05T06:11:26.731Z,-1.30
2022-12-05T06:14:00.878Z,-1.18
2022-12-05T06:16:29.705Z,-1.37
2022-12-05T06:18:58.521Z,-1.45
2022-12-05T06:21:26.595Z,-1.47
2022-12-05T06:23:54.674Z,-1.33
2022-12-05T06:26:22.885Z,-1.38
2022-12-05T06:28:50.491Z,-1.22
2022-12-05T06:31:21.846Z,-1.37
2022-12-05T06:33:49.371Z,-1.45
2022-12-05T06:36:19.379Z,-1.31
2022-12-05T06:38:46.928Z,-1.47
2022-12-05T06:41:17.568Z,-1.13
2022-12-05T06:43:45.206Z,-1.33
2022-12-05T06:46:14.129Z,-1.35
2022-12-05T06:48:41.487Z,-1.35
2022-12-05T06:51:13.846Z,-1.38
2022-12-05T06:53:41.556Z,-1.27
2022-12-05T06:56:12.344Z,-1.44
2022-12-05T06:58:40.890Z,-1.21
2022-12-05T07:01:31.873Z,-1.27
2022-12-05T07:03:59.831Z,-1.40
2022-12-05T07:06:28.055Z,-1.44
2022-12-05T07:08:55.374Z,-1.31
2022-12-05T07:11:22.818Z,-1.15
2022-12-05T07:13:49.957Z,-1.33
2022-12-05T07:16:17.495Z,-1.43
2022-12-05T07:18:44.693Z,-1.32
2022-12-05T07:21:14.497Z,-1.37
2022-12-05T07:23:44.150Z,-1.34
2022-12-05T07:26:18.145Z,-1.31
2022-12-05T07:28:45.735Z,-1.32
2022-12-05T07:31:16.634Z,-1.45
2022-12-05T07:33:44.291Z,-1.33
2022-12-05T07:36:15.037Z,-1.37
2022-12-05T07:38:43.135Z,-1.44
2022-12-05T07:41:22.573Z,-1.26
2022-12-05T07:43:54.942Z,-1.39
2022-12-05T07:46:23.896Z,-1.36
2022-12-05T07:48:51.602Z,-1.18
2022-12-05T07:51:20.317Z,-1.20
2022-12-05T07:53:48.117Z,-1.31
2022-12-05T07:56:17.632Z,-1.31
2022-12-05T07:58:47.554Z,-1.33
2022-12-05T08:01:17.960Z,-1.28
2022-12-05T08:03:46.027Z,-1.23
2022-12-05T08:06:18.438Z,-1.23
2022-12-05T08:08:50.013Z,-1.38
2022-12-05T08:11:22.174Z,-1.32
2022-12-05T08:13:50.289Z,-1.44
2022-12-05T08:16:21.771Z,-1.49
2022-12-05T08:18:49.190Z,-1.47
2022-12-05T08:21:19.133Z,-1.49
2022-12-05T08:23:46.975Z,-1.42
2022-12-05T08:26:17.178Z,-1.47
2022-12-05T08:28:44.847Z,-1.44
2022-12-05T08:31:18.258Z,-1.44
2022-12-05T08:33:46.031Z,-1.45
2022-12-05T08:36:15.622Z,-1.47
2022-12-05T08:38:44.138Z,-1.38
2022-12-05T08:41:16.967Z,-1.36
2022-12-05T08:43:44.717Z,-1.21
2022-12-05T08:46:12.753Z,-1.30
2022-12-05T08:48:40.170Z,-1.32
2022-12-05T08:51:10.107Z,-1.42
2022-12-05T08:53:44.032Z,-1.27
2022-12-05T08:56:12.923Z,-1.47
2022-12-05T08:58:40.926Z,-1.33
2022-12-05T09:01:38.683Z,-1.16
2022-12-05T09:04:07.400Z,-1.45
2022-12-05T09:06:35.756Z,-1.49
2022-12-05T09:09:07.058Z,-1.47
2022-12-05T09:11:38.001Z,-1.55
2022-12-05T09:14:05.632Z,-1.49
2022-12-05T09:16:38.561Z,-1.51
2022-12-05T09:19:27.781Z,-1.44
2022-12-05T09:21:55.976Z,-1.56
2022-12-05T09:24:23.415Z,-1.50
2022-12-05T09:26:50.980Z,-1.50
2022-12-05T09:29:18.381Z,-1.45
2022-12-05T09:31:49.940Z,-1.49
2022-12-05T09:34:18.516Z,-1.47
2022-12-05T09:36:55.788Z,-1.55
2022-12-05T09:39:25.865Z,-1.59
2022-12-05T09:42:19.396Z,-1.57
2022-12-05T09:44:46.609Z,-1.49
2022-12-05T09:47:23.283Z,-1.25
2022-12-05T09:49:57.548Z,-1.42
2022-12-05T09:52:31.718Z,-1.49
2022-12-05T09:55:09.929Z,-1.33
2022-12-05T09:57:43.394Z,-1.30
2022-12-05T10:00:12.080Z,-1.55
2022-12-05T10:02:54.725Z,-1.20
2022-12-05T10:05:34.887Z,-1.43
2022-12-05T10:08:07.291Z,-1.37
2022-12-05T10:10:56.889Z,-1.33
2022-12-05T10:13:40.275Z,-1.31
2022-12-05T10:16:39.192Z,-1.42
2022-12-05T10:19:32.767Z,-1.35
2022-12-05T10:22:09.987Z,-1.24
2022-12-05T10:24:42.187Z,-1.24
2022-12-05T10:27:27.440Z,-1.39
2022-12-05T10:30:02.686Z,-1.29
2022-12-05T10:32:55.546Z,-1.37
2022-12-05T10:35:28.214Z,-1.29
2022-12-05T10:38:00.805Z,-1.42
2022-12-05T10:40:38.669Z,-1.49
2022-12-05T10:43:08.360Z,-1.25
2022-12-05T10:45:45.622Z,-1.43
2022-12-05T10:48:16.078Z,-1.33
2022-12-05T10:50:45.371Z,-1.57
2022-12-05T10:53:17.157Z,-1.61
2022-12-05T10:56:28.120Z,-1.66
2022-12-05T10:58:38.585Z,-1.51
2022-12-05T11:01:13.363Z,-1.55
2022-12-05T11:03:43.373Z,-1.48
2022-12-05T11:06:24.150Z,-1.42
2022-12-05T11:09:18.542Z,-1.30
2022-12-05T11:12:06.802Z,-1.37
2022-12-05T11:14:36.253Z,-1.53
2022-12-05T11:17:05.589Z,-1.46
2022-12-05T11:19:36.821Z,-1.37
2022-12-05T11:22:08.009Z,-1.37
2022-12-05T11:24:38.470Z,-1.30
2022-12-05T11:27:27.964Z,-1.60
2022-12-05T11:30:15.427Z,-1.57
2022-12-05T11:32:42.991Z,-1.39
2022-12-05T11:35:13.061Z,-1.51
2022-12-05T11:37:55.986Z,-1.61
2022-12-05T11:40:42.735Z,-1.56
2022-12-05T11:43:22.311Z,-1.55
2022-12-05T11:45:58.727Z,-1.40
2022-12-05T11:48:39.431Z,-1.49
2022-12-05T11:51:06.538Z,-1.43
2022-12-05T11:54:00.660Z,-1.44
2022-12-05T11:56:58.766Z,-1.53
2022-12-05T12:00:03.090Z,-1.57
2022-12-05T12:02:57.348Z,-1.29
2022-12-05T12:05:42.287Z,-1.46
2022-12-05T12:08:25.302Z,-1.46
2022-12-05T12:11:08.358Z,-1.50
2022-12-05T12:13:47.543Z,-1.63
2022-12-05T12:16:30.110Z,-1.64
2022-12-05T12:19:05.793Z,-1.64
2022-12-05T12:22:01.526Z,-1.54
2022-12-05T12:24:28.773Z,-1.52
2022-12-05T12:27:02.162Z,-1.52
2022-12-05T12:29:32.125Z,-1.39
2022-12-05T12:32:25.930Z,-1.28
2022-12-05T12:35:23.808Z,-1.32
2022-12-05T12:38:24.954Z,-1.52
2022-12-05T12:40:55.417Z,-1.51
2022-12-05T12:43:54.768Z,-1.51
2022-12-05T12:46:25.153Z,-1.51
2022-12-05T12:49:36.139Z,-1.58
2022-12-05T12:52:23.461Z,-1.57
2022-12-05T12:55:12.625Z,-1.46
2022-12-05T12:57:58.666Z,-1.43
2022-12-05T13:01:04.798Z,-1.50
2022-12-05T13:03:41.583Z,-1.45
2022-12-05T13:06:14.839Z,-1.19
2022-12-05T13:08:49.992Z,-1.32
2022-12-05T13:11:19.759Z,-1.47
2022-12-05T13:13:51.228Z,-1.60
2022-12-05T13:16:45.544Z,-1.62
2022-12-05T13:19:41.000Z,-1.37
2022-12-05T13:22:08.963Z,-1.46
2022-12-05T13:24:36.569Z,-1.55
2022-12-05T13:27:14.772Z,-1.51
2022-12-05T13:29:50.976Z,-1.53
2022-12-05T13:32:37.450Z,-1.37
2022-12-05T13:35:07.597Z,-1.54
2022-12-05T13:37:55.134Z,-1.52
2022-12-05T13:40:52.952Z,-1.33
2022-12-05T13:43:29.492Z,-1.26
2022-12-05T13:46:06.715Z,-1.43
2022-12-05T13:48:38.445Z,-1.41
2022-12-05T13:51:13.620Z,-1.52
2022-12-05T13:53:43.950Z,-1.49
2022-12-05T13:56:14.094Z,-1.27
2022-12-05T13:58:52.728Z,-1.49
2022-12-05T14:01:48.975Z,-1.37
2022-12-05T14:04:44.125Z,-1.50
2022-12-05T14:07:12.057Z,-1.40
2022-12-05T14:09:51.039Z,-1.48
2022-12-05T14:12:18.122Z,-1.60
2022-12-05T14:14:58.102Z,-1.54
2022-12-05T14:17:31.502Z,-1.37
2022-12-05T14:20:43.759Z,-1.47
2022-12-05T14:23:16.611Z,-1.27
2022-12-05T14:26:08.683Z,-1.49
2022-12-05T14:29:01.743Z,-1.36
2022-12-05T14:31:44.151Z,-1.41
2022-12-05T14:34:18.306Z,-1.54
2022-12-05T14:37:03.691Z,-1.29
2022-12-05T14:39:35.466Z,-1.33
2022-12-05T14:42:18.676Z,-1.34
2022-12-05T14:44:48.869Z,-1.21
2022-12-05T14:47:23.109Z,-1.27
2022-12-05T14:49:58.052Z,-1.35
2022-12-05T14:52:28.010Z,-1.47
2022-12-05T14:55:09.066Z,-1.48
2022-12-05T14:57:47.136Z,-1.33
2022-12-05T15:00:22.912Z,-1.08
2022-12-05T15:02:55.550Z,-1.16
2022-12-05T15:05:33.771Z,-1.34
2022-12-05T15:08:03.959Z,-1.26
2022-12-05T15:10:38.486Z,-1.40
2022-12-05T15:13:14.493Z,-1.47
2022-12-05T15:15:52.187Z,-1.35
2022-12-05T15:18:24.600Z,-1.47
2022-12-05T15:20:59.222Z,-1.43
2022-12-05T15:23:49.035Z,-1.57
2022-12-05T15:26:45.534Z,-1.40
2022-12-05T15:29:18.084Z,-1.33
2022-12-05T15:31:46.424Z,-1.44
2022-12-05T15:34:22.962Z,-1.46
2022-12-05T15:36:57.734Z,-1.52
2022-12-05T15:39:28.456Z,-1.58
2022-12-05T15:41:57.290Z,-1.47
2022-12-05T15:44:34.233Z,-1.52
2022-12-05T15:47:04.767Z,-1.50
2022-12-05T15:49:32.255Z,-1.51
2022-12-05T15:52:18.331Z,-1.46
2022-12-05T15:54:47.210Z,-1.37
2022-12-05T15:57:41.071Z,-1.41
2022-12-05T16:00:17.424Z,-1.48
2022-12-05T16:02:47.457Z,-1.37
2022-12-05T16:05:30.829Z,-1.47
2022-12-05T16:07:58.375Z,-1.44
2022-12-05T16:10:29.520Z,-1.45
2022-12-05T16:13:04.731Z,-1.54
2022-12-05T16:15:33.025Z,-1.57
2022-12-05T16:18:02.590Z,-1.29
2022-12-05T16:20:35.565Z,-1.30
2022-12-05T16:23:05.919Z,-1.34
2022-12-05T16:25:35.882Z,-1.49
2022-12-05T16:28:18.779Z,-1.33
2022-12-05T16:31:01.997Z,-1.31
2022-12-05T16:33:30.806Z,-1.51
2022-12-05T16:36:14.451Z,-1.52
2022-12-05T16:38:43.466Z,-1.44
2022-12-05T16:41:15.184Z,-1.49
2022-12-05T16:43:45.627Z,-1.57
2022-12-05T16:46:13.580Z,-1.54
2022-12-05T16:48:44.561Z,-1.47
2022-12-05T16:51:15.038Z,-1.50
2022-12-05T16:53:46.196Z,-1.41
2022-12-05T16:56:20.742Z,-1.42
2022-12-05T16:58:48.229Z,-1.43
2022-12-05T17:01:22.172Z,-1.47
2022-12-05T17:03:49.498Z,-1.35
2022-12-05T17:06:21.422Z,-1.47
2022-12-05T17:08:49.134Z,-1.49
2022-12-05T17:11:16.540Z,-1.38
2022-12-05T17:13:45.276Z,-1.52
2022-12-05T17:16:12.803Z,-1.52
2022-12-05T17:18:40.135Z,-1.50
2022-12-05T17:21:14.144Z,-1.50
2022-12-05T17:23:44.552Z,-1.39
2022-12-05T17:26:17.549Z,-1.45
2022-12-05T17:28:45.383Z,-1.52
2022-12-05T17:31:17.392Z,-1.55
2022-12-05T17:33:46.043Z,-1.56
2022-12-05T17:36:14.346Z,-1.50
2022-12-05T17:38:41.865Z,-1.29
2022-12-05T17:41:16.411Z,-1.22
2022-12-05T17:43:44.180Z,-1.07
2022-12-05T17:46:20.728Z,-1.23
2022-12-05T17:48:49.413Z,-1.21
2022-12-05T17:51:18.299Z,-1.41
2022-12-05T17:53:45.804Z,-1.20
2022-12-05T17:56:14.126Z,-1.43
2022-12-05T17:58:42.268Z,-1.40
2022-12-05T18:01:19.524Z,-1.41
2022-12-05T18:03:48.203Z,-1.49
2022-12-05T18:06:16.110Z,-1.52
2022-12-05T18:08:45.214Z,-1.25
2022-12-05T18:11:14.158Z,-1.51
2022-12-05T18:13:41.463Z,-1.30
2022-12-05T18:16:09.060Z,-1.13
2022-12-05T18:18:36.606Z,-1.38
2022-12-05T18:21:12.046Z,-1.41
2022-12-05T18:23:40.629Z,-1.25
2022-12-05T18:26:09.809Z,-1.32
2022-12-05T18:28:39.023Z,-1.25
2022-12-05T18:31:08.171Z,-1.38
2022-12-05T18:33:39.640Z,-1.19
2022-12-05T18:36:12.931Z,-1.47
2022-12-05T18:38:40.838Z,-1.51
2022-12-05T18:41:08.054Z,-1.49
2022-12-05T18:43:36.315Z,-1.39
2022-12-05T18:46:04.770Z,-1.41
2022-12-05T18:48:46.953Z,-1.41
2022-12-05T18:51:17.607Z,-1.37
2022-12-05T18:53:51.811Z,-1.41
2022-12-05T18:56:24.165Z,-1.50
2022-12-05T18:58:54.206Z,-1.40
2022-12-05T19:01:21.583Z,-1.47
2022-12-05T19:03:50.512Z,-1.32
2022-12-05T19:06:23.459Z,-1.43
2022-12-05T19:08:54.372Z,-1.32
2022-12-05T19:11:22.514Z,-1.32
2022-12-05T19:13:54.891Z,-1.22
2022-12-05T19:16:22.264Z,-1.15
2022-12-05T19:18:54.573Z,-1.18
2022-12-05T19:21:26.434Z,-1.25
2022-12-05T19:23:54.520Z,-1.29
2022-12-05T19:26:22.943Z,-1.34
2022-12-05T19:28:50.559Z,-1.24
2022-12-05T19:31:20.376Z,-1.49
2022-12-05T19:33:50.749Z,-1.41
2022-12-05T19:36:21.095Z,-1.41
2022-12-05T19:38:50.000Z,-1.50
2022-12-05T19:41:20.825Z,-1.49
2022-12-05T19:43:48.311Z,-1.24
2022-12-05T19:46:33.637Z,-1.41
2022-12-05T19:49:08.457Z,-1.29
2022-12-05T19:51:35.809Z,-1.31
2022-12-05T19:54:05.387Z,-1.40
2022-12-05T19:56:34.118Z,-1.32
2022-12-05T19:59:01.950Z,-1.26
2022-12-05T20:01:31.667Z,-1.11
2022-12-05T20:04:08.142Z,-1.04
2022-12-05T20:06:44.153Z,-1.26
2022-12-05T20:09:13.131Z,-1.43
2022-12-05T20:11:43.683Z,-1.35
2022-12-05T20:14:13.341Z,-1.26
2022-12-05T20:16:41.595Z,-1.20
2022-12-05T20:19:09.509Z,-1.13
2022-12-05T20:21:40.034Z,-1.35
2022-12-05T20:24:08.563Z,-1.24
2022-12-05T20:26:38.153Z,-1.36
2022-12-05T20:29:06.922Z,-1.25
2022-12-05T20:31:39.702Z,-1.18
2022-12-05T20:34:09.258Z,-1.27
2022-12-05T20:36:36.746Z,-1.26
2022-12-05T20:39:11.126Z,-1.14
2022-12-05T20:41:38.518Z,-1.22
2022-12-05T20:44:08.153Z,-1.18
2022-12-05T20:46:36.911Z,-1.10
2022-12-05T20:49:04.520Z,-1.01
2022-12-05T20:51:33.860Z,-1.16
2022-12-05T20:54:03.940Z,-1.03
2022-12-05T20:56:33.017Z,-1.22
2022-12-05T20:59:05.814Z,-1.08
2022-12-05T21:01:35.548Z,-1.15
2022-12-05T21:04:05.991Z,-1.05
2022-12-05T21:06:36.254Z,-1.06
2022-12-05T21:09:06.552Z,-1.12
2022-12-05T21:11:33.830Z,-0.98
2022-12-05T21:14:01.952Z,-1.06
2022-12-05T21:16:29.152Z,-1.11
2022-12-05T21:18:58.815Z,-1.08
2022-12-05T21:21:28.205Z,-1.26
2022-12-05T21:23:58.143Z,-1.18
2022-12-05T21:26:27.449Z,-1.03
2022-12-05T21:28:55.467Z,-1.06
2022-12-05T21:31:28.525Z,-0.86
2022-12-05T21:33:59.080Z,-0.69
2022-12-05T21:36:28.437Z,-1.03
2022-12-05T21:38:56.758Z,-1.21
2022-12-05T21:41:25.869Z,-1.21
2022-12-05T21:43:55.309Z,-1.22
2022-12-05T21:46:24.190Z,-1.09
2022-12-05T21:48:51.763Z,-1.24
2022-12-05T21:51:18.918Z,-1.06
2022-12-05T21:53:46.363Z,-1.14
2022-12-05T21:56:18.078Z,-1.21
2022-12-05T21:58:46.184Z,-1.18
2022-12-05T22:01:21.873Z,-1.31
2022-12-05T22:04:00.886Z,-1.35
2022-12-05T22:06:30.103Z,-1.37
2022-12-05T22:08:57.721Z,-1.27
2022-12-05T22:11:25.401Z,-1.24
2022-12-05T22:13:53.327Z,-1.26
2022-12-05T22:16:21.164Z,-1.26
2022-12-05T22:18:49.006Z,-1.29
2022-12-05T22:21:21.228Z,-1.19
2022-12-05T22:23:49.678Z,-1.20
2022-12-05T22:26:20.071Z,-1.19
2022-12-05T22:28:50.564Z,-1.28
2022-12-05T22:31:18.682Z,-1.11
2022-12-05T22:33:46.691Z,-1.11
2022-12-05T22:36:16.556Z,-1.11
2022-12-05T22:38:45.676Z,-1.19
2022-12-05T22:41:19.013Z,-1.21
2022-12-05T22:43:48.676Z,-1.22
2022-12-05T22:46:18.893Z,-1.28
2022-12-05T22:48:48.037Z,-1.17
2022-12-05T22:51:16.844Z,-1.28
2022-12-05T22:53:44.528Z,-1.27
2022-12-05T22:56:14.858Z,-1.27
2022-12-05T22:58:42.930Z,-1.18
2022-12-05T23:01:18.648Z,-1.20
2022-12-05T23:03:47.856Z,-1.23
2022-12-05T23:06:17.105Z,-1.23
2022-12-05T23:08:47.882Z,-1.27
2022-12-05T23:11:18.999Z,-1.15
2022-12-05T23:13:48.362Z,-1.19
2022-12-05T23:16:21.374Z,-1.07
2022-12-05T23:18:55.915Z,-1.20
2022-12-05T23:21:27.963Z,-1.27
2022-12-05T23:23:59.947Z,-1.30
2022-12-05T23:26:34.023Z,-0.96
2022-12-05T23:29:01.738Z,-1.19
2022-12-05T23:31:29.034Z,-1.21
2022-12-05T23:34:02.694Z,-1.18
2022-12-05T23:36:32.303Z,-1.20
2022-12-05T23:39:00.276Z,-1.05
2022-12-05T23:41:27.753Z,-1.06
2022-12-05T23:43:56.834Z,-1.03
2022-12-05T23:46:26.625Z,-1.17
2022-12-05T23:48:55.321Z,-1.13
2022-12-05T23:51:25.764Z,-1.02
2022-12-05T23:53:56.549Z,-1.17
2022-12-05T23:56:26.254Z,-1.15
2022-12-05T23:58:55.308Z,-1.15
